createdAt,value
2019-02-16T00:00:52.486Z,14.50
2019-02-16T00:02:55.550Z,11.40
2019-02-16T00:04:59.268Z,12.55
2019-02-16T00:07:03.052Z,12.07
2019-02-16T00:09:06.732Z,12.65
2019-02-16T00:11:09.710Z,13.82
2019-02-16T00:13:12.637Z,11.00
2019-02-16T00:15:15.556Z,13.23
2019-02-16T00:17:18.532Z,17.33
2019-02-16T00:19:21.483Z,8.82
2019-02-16T00:21:24.403Z,18.83
2019-02-16T00:23:27.354Z,17.80
2019-02-16T00:25:30.269Z,9.48
2019-02-16T00:27:33.293Z,15.32
2019-02-16T00:29:37.096Z,10.20
2019-02-16T00:31:40.780Z,11.10
2019-02-16T00:33:44.476Z,11.43
2019-02-16T00:35:47.595Z,9.70
2019-02-16T00:37:51.390Z,11.60
2019-02-16T00:39:55.186Z,9.07
2019-02-16T00:41:59.420Z,12.55
2019-02-16T00:44:02.876Z,9.18
2019-02-16T00:46:06.577Z,7.87
2019-02-16T00:48:10.010Z,12.00
2019-02-16T00:50:12.925Z,9.73
2019-02-16T00:52:15.954Z,8.38
2019-02-16T00:54:19.675Z,10.70
2019-02-16T00:56:22.611Z,9.85
2019-02-16T00:58:25.528Z,7.93
2019-02-16T01:00:29.317Z,8.70
2019-02-16T01:02:33.004Z,11.32
2019-02-16T01:04:36.716Z,8.20
2019-02-16T01:06:41.151Z,11.82
2019-02-16T01:08:44.065Z,12.82
2019-02-16T01:10:46.988Z,15.52
2019-02-16T01:12:51.133Z,9.10
2019-02-16T01:14:54.191Z,6.20
2019-02-16T01:16:57.876Z,9.68
2019-02-16T01:19:00.825Z,8.15
2019-02-16T01:21:03.740Z,8.50
2019-02-16T01:23:06.661Z,8.15
2019-02-16T01:25:09.609Z,6.37
2019-02-16T01:27:14.028Z,9.70
2019-02-16T01:29:17.736Z,7.57
2019-02-16T01:31:21.538Z,6.75
2019-02-16T01:33:25.340Z,5.12
2019-02-16T01:35:29.024Z,7.18
2019-02-16T01:37:31.959Z,6.87
2019-02-16T01:39:34.871Z,8.30
2019-02-16T01:41:37.816Z,4.90
2019-02-16T01:43:41.216Z,9.98
2019-02-16T01:45:44.147Z,7.57
2019-02-16T01:47:47.101Z,9.18
2019-02-16T01:49:50.063Z,6.82
2019-02-16T01:51:55.127Z,10.20
2019-02-16T01:53:58.107Z,11.80
2019-02-16T01:56:01.248Z,11.87
2019-02-16T01:58:04.167Z,12.67
2019-02-16T02:00:07.188Z,18.35
2019-02-16T02:02:10.913Z,15.10
2019-02-16T02:04:13.836Z,12.45
2019-02-16T02:06:16.860Z,7.30
2019-02-16T02:08:19.796Z,11.93
2019-02-16T02:10:22.723Z,11.63
2019-02-16T02:12:26.408Z,8.00
2019-02-16T02:14:29.735Z,12.85
2019-02-16T02:16:32.667Z,10.73
2019-02-16T02:18:35.587Z,11.82
2019-02-16T02:20:38.541Z,9.20
2019-02-16T02:22:41.463Z,14.73
2019-02-16T02:24:44.380Z,10.68
2019-02-16T02:26:47.508Z,8.97
2019-02-16T02:28:51.199Z,8.70
2019-02-16T02:30:54.885Z,13.27
2019-02-16T02:32:58.096Z,9.10
2019-02-16T02:35:01.923Z,7.95
2019-02-16T02:37:04.812Z,7.97
2019-02-16T02:39:07.934Z,9.57
2019-02-16T02:41:10.820Z,9.07
2019-02-16T02:43:13.692Z,8.88
2019-02-16T02:45:16.605Z,9.93
2019-02-16T02:47:20.160Z,25.55
2019-02-16T02:49:23.067Z,11.65
2019-02-16T02:51:27.468Z,8.73
2019-02-16T02:53:31.573Z,12.77
2019-02-16T02:55:33.334Z,10.50
2019-02-16T02:57:36.322Z,7.18
2019-02-16T02:59:39.192Z,10.48
2019-02-16T03:01:42.400Z,11.10
2019-02-16T03:03:46.707Z,13.18
2019-02-16T03:05:49.585Z,7.55
2019-02-16T03:07:52.464Z,7.75
2019-02-16T03:09:55.450Z,11.35
2019-02-16T03:11:59.175Z,7.22
2019-02-16T03:14:02.804Z,10.07
2019-02-16T03:16:05.700Z,5.43
2019-02-16T03:18:08.581Z,8.15
2019-02-16T03:20:12.584Z,6.58
2019-02-16T03:22:16.458Z,4.72
2019-02-16T03:24:20.092Z,6.00
2019-02-16T03:26:31.704Z,5.13
2019-02-16T03:28:42.635Z,7.30
2019-02-16T03:30:50.088Z,4.37
2019-02-16T03:32:57.269Z,9.45
2019-02-16T03:35:09.599Z,5.97
2019-02-16T03:37:43.940Z,6.80
2019-02-16T03:39:47.384Z,3.90
2019-02-16T03:41:51.060Z,10.10
2019-02-16T03:43:54.040Z,4.90
2019-02-16T03:45:57.707Z,3.93
2019-02-16T03:48:01.464Z,10.50
2019-02-16T03:50:05.138Z,7.72
2019-02-16T03:52:13.966Z,10.95
2019-02-16T03:54:11.821Z,21.30
2019-02-16T03:56:14.805Z,5.60
2019-02-16T03:58:17.821Z,5.78
2019-02-16T04:00:21.077Z,9.95
2019-02-16T04:02:23.953Z,6.12
2019-02-16T04:04:26.950Z,9.35
2019-02-16T04:06:30.667Z,5.55
2019-02-16T04:08:34.643Z,6.45
2019-02-16T04:10:37.627Z,6.68
2019-02-16T04:12:40.744Z,7.18
2019-02-16T04:14:44.623Z,4.72
2019-02-16T04:16:48.011Z,10.27
2019-02-16T04:18:50.901Z,7.37
2019-02-16T04:20:54.966Z,8.50
2019-02-16T04:22:57.879Z,8.93
2019-02-16T04:25:00.999Z,11.07
2019-02-16T04:27:04.671Z,5.80
2019-02-16T04:29:07.652Z,4.60
2019-02-16T04:31:10.639Z,5.28
2019-02-16T04:33:13.621Z,4.82
2019-02-16T04:35:16.531Z,5.63
2019-02-16T04:37:20.682Z,5.75
2019-02-16T04:39:24.001Z,7.03
2019-02-16T04:41:27.089Z,9.48
2019-02-16T04:43:29.976Z,4.85
2019-02-16T04:45:32.960Z,6.18
2019-02-16T04:47:36.751Z,6.80
2019-02-16T04:49:39.731Z,6.80
2019-02-16T04:51:44.268Z,6.75
2019-02-16T04:53:47.956Z,5.97
2019-02-16T04:55:50.818Z,5.45
2019-02-16T04:57:53.680Z,4.12
2019-02-16T04:59:56.808Z,6.00
2019-02-16T05:01:59.676Z,7.00
2019-02-16T05:04:02.560Z,5.97
2019-02-16T05:06:05.462Z,8.10
2019-02-16T05:08:09.956Z,9.40
2019-02-16T05:10:12.952Z,9.83
2019-02-16T05:12:17.076Z,8.23
2019-02-16T05:14:20.387Z,9.68
2019-02-16T05:16:23.342Z,9.35
2019-02-16T05:18:26.986Z,44.83
2019-02-16T05:20:29.936Z,10.35
2019-02-16T05:22:33.608Z,6.22
2019-02-16T05:24:36.589Z,5.82
2019-02-16T05:26:39.578Z,5.40
2019-02-16T05:28:42.566Z,7.25
2019-02-16T05:30:45.772Z,11.00
2019-02-16T05:32:49.647Z,7.47
2019-02-16T05:34:53.499Z,10.65
2019-02-16T05:36:56.463Z,7.28
2019-02-16T05:39:00.143Z,7.93
2019-02-16T05:41:03.116Z,7.68
2019-02-16T05:43:06.105Z,14.30
2019-02-16T05:45:09.086Z,7.97
2019-02-16T05:47:11.963Z,12.27
2019-02-16T05:49:14.840Z,7.87
2019-02-16T05:51:19.273Z,9.93
2019-02-16T05:53:22.224Z,11.48
2019-02-16T05:55:25.460Z,7.00
2019-02-16T05:57:30.059Z,9.65
2019-02-16T05:59:32.934Z,9.25
2019-02-16T06:01:35.825Z,10.13
2019-02-16T06:03:38.723Z,8.90
2019-02-16T06:05:42.988Z,8.30
2019-02-16T06:07:45.904Z,7.85
2019-02-16T06:09:49.617Z,9.20
2019-02-16T06:11:54.187Z,10.80
2019-02-16T06:13:57.075Z,9.18
2019-02-16T06:16:00.657Z,5.90
2019-02-16T06:18:04.361Z,9.93
2019-02-16T06:20:07.236Z,9.80
2019-02-16T06:22:10.201Z,6.43
2019-02-16T06:24:13.139Z,8.20
2019-02-16T06:26:16.022Z,14.75
2019-02-16T06:28:19.130Z,9.00
2019-02-16T06:30:22.800Z,8.77
2019-02-16T06:32:25.683Z,12.23
2019-02-16T06:34:28.668Z,8.30
2019-02-16T06:36:31.541Z,8.40
2019-02-16T06:38:34.453Z,10.23
2019-02-16T06:40:38.137Z,12.73
2019-02-16T06:42:41.013Z,9.67
2019-02-16T06:44:43.932Z,8.38
2019-02-16T06:46:46.876Z,7.45
2019-02-16T06:48:49.763Z,8.82
2019-02-16T06:50:52.702Z,19.95
2019-02-16T06:52:55.608Z,10.70
2019-02-16T06:54:58.489Z,9.15
2019-02-16T06:57:02.172Z,8.77
2019-02-16T06:59:05.513Z,8.20
2019-02-16T07:01:09.144Z,9.25
2019-02-16T07:03:12.176Z,7.90
2019-02-16T07:05:15.972Z,6.80
2019-02-16T07:07:18.958Z,16.92
2019-02-16T07:09:21.843Z,8.80
2019-02-16T07:11:25.543Z,7.82
2019-02-16T07:13:29.491Z,6.82
2019-02-16T07:15:32.688Z,11.12
2019-02-16T07:17:37.972Z,13.57
2019-02-16T07:19:41.627Z,13.30
2019-02-16T07:21:45.291Z,13.80
2019-02-16T07:23:48.995Z,7.60
2019-02-16T07:25:51.945Z,12.05
2019-02-16T07:27:54.877Z,9.17
2019-02-16T07:29:57.785Z,7.95
2019-02-16T07:32:00.721Z,10.15
2019-02-16T07:34:03.796Z,17.12
2019-02-16T07:36:07.484Z,10.43
2019-02-16T07:38:10.360Z,15.00
2019-02-16T07:40:13.255Z,13.25
2019-02-16T07:42:16.967Z,16.73
2019-02-16T07:44:26.224Z,14.38
2019-02-16T07:46:31.313Z,13.55
2019-02-16T07:48:37.079Z,11.43
2019-02-16T07:50:44.228Z,9.60
2019-02-16T07:52:50.887Z,9.68
2019-02-16T07:55:00.580Z,11.13
2019-02-16T07:57:05.957Z,8.48
2019-02-16T07:59:09.375Z,12.63
2019-02-16T08:01:27.158Z,13.82
2019-02-16T08:03:31.772Z,13.82
2019-02-16T08:05:55.375Z,12.60
2019-02-16T08:07:59.236Z,13.02
2019-02-16T08:10:02.114Z,8.43
2019-02-16T08:12:08.627Z,12.53
2019-02-16T08:14:16.031Z,12.27
2019-02-16T08:16:22.071Z,9.85
2019-02-16T08:18:28.983Z,12.32
2019-02-16T08:20:34.266Z,10.50
2019-02-16T08:22:38.529Z,13.18
2019-02-16T08:24:43.108Z,12.70
2019-02-16T08:27:00.881Z,11.75
2019-02-16T08:29:11.221Z,15.95
2019-02-16T08:31:26.624Z,17.50
2019-02-16T08:33:33.356Z,20.67
2019-02-16T08:35:40.115Z,15.43
2019-02-16T08:37:58.756Z,20.10
2019-02-16T08:40:17.579Z,20.80
2019-02-16T08:42:22.120Z,15.90
2019-02-16T08:44:25.471Z,12.70
2019-02-16T08:46:34.160Z,31.35
2019-02-16T08:48:40.964Z,17.05
2019-02-16T08:50:48.450Z,19.13
2019-02-16T08:53:02.852Z,23.57
2019-02-16T08:55:21.496Z,19.93
2019-02-16T08:57:39.259Z,21.90
2019-02-16T08:59:43.808Z,14.73
2019-02-16T09:02:03.435Z,27.80
2019-02-16T09:04:07.749Z,19.33
2019-02-16T09:06:27.540Z,18.50
2019-02-16T09:08:31.911Z,18.90
2019-02-16T09:10:36.451Z,14.60
2019-02-16T09:12:54.946Z,21.63
2019-02-16T09:15:04.042Z,16.12
2019-02-16T09:17:09.585Z,18.25
2019-02-16T09:19:27.368Z,17.20
2019-02-16T09:21:46.508Z,13.88
2019-02-16T09:23:59.030Z,17.42
2019-02-16T09:26:08.892Z,17.10
2019-02-16T09:28:17.295Z,19.63
2019-02-16T09:30:23.548Z,14.80
2019-02-16T09:32:30.065Z,16.95
2019-02-16T09:34:35.747Z,17.52
2019-02-16T09:36:40.874Z,20.37
2019-02-16T09:38:49.186Z,20.23
2019-02-16T09:40:54.292Z,23.65
2019-02-16T09:43:14.374Z,24.25
2019-02-16T09:45:17.767Z,26.08
2019-02-16T09:47:22.607Z,19.27
2019-02-16T09:49:27.008Z,18.07
2019-02-16T09:51:34.495Z,17.53
2019-02-16T09:53:38.173Z,21.00
2019-02-16T09:55:56.770Z,24.77
2019-02-16T09:58:16.189Z,20.67
2019-02-16T10:00:22.570Z,21.00
2019-02-16T10:02:26.995Z,27.40
2019-02-16T10:04:31.038Z,16.00
2019-02-16T10:06:39.615Z,20.80
2019-02-16T10:08:48.294Z,16.37
2019-02-16T10:10:51.940Z,21.87
2019-02-16T10:13:00.531Z,27.92
2019-02-16T10:15:06.948Z,21.02
2019-02-16T10:17:10.109Z,22.83
2019-02-16T10:19:17.727Z,16.73
2019-02-16T10:21:24.264Z,20.40
2019-02-16T10:23:28.836Z,15.32
2019-02-16T10:25:36.680Z,18.77
2019-02-16T10:27:57.132Z,19.23
2019-02-16T10:30:00.883Z,19.23
2019-02-16T10:32:09.507Z,21.70
2019-02-16T10:34:15.020Z,20.55
2019-02-16T10:36:24.348Z,25.40
2019-02-16T10:38:28.390Z,20.40
2019-02-16T10:40:37.789Z,24.85
2019-02-16T10:42:56.538Z,20.92
2019-02-16T10:45:12.227Z,25.60
2019-02-16T10:47:20.496Z,23.40
2019-02-16T10:49:39.189Z,20.90
2019-02-16T10:51:52.847Z,25.23
2019-02-16T10:54:07.054Z,19.67
2019-02-16T10:56:25.705Z,18.85
2019-02-16T10:58:30.524Z,17.60
2019-02-16T11:00:39.435Z,22.20
2019-02-16T11:02:57.400Z,20.95
2019-02-16T11:05:03.998Z,19.17
2019-02-16T11:07:11.341Z,22.73
2019-02-16T11:09:14.240Z,17.85
2019-02-16T11:11:22.176Z,25.48
2019-02-16T11:13:25.068Z,30.08
2019-02-16T11:15:32.668Z,26.05
2019-02-16T11:17:43.059Z,19.12
2019-02-16T11:19:47.379Z,21.20
2019-02-16T11:22:11.790Z,27.27
2019-02-16T11:24:21.109Z,19.37
2019-02-16T11:26:41.450Z,18.60
2019-02-16T11:28:50.025Z,24.40
2019-02-16T11:30:53.724Z,19.80
2019-02-16T11:32:57.395Z,26.05
2019-02-16T11:35:14.996Z,22.95
2019-02-16T11:37:18.360Z,20.00
2019-02-16T11:39:24.135Z,23.23
2019-02-16T11:41:27.531Z,26.50
2019-02-16T11:43:47.188Z,29.80
2019-02-16T11:45:50.083Z,25.80
2019-02-16T11:48:07.877Z,21.03
2019-02-16T11:50:16.536Z,23.70
2019-02-16T11:52:36.093Z,21.87
2019-02-16T11:54:45.682Z,19.70
2019-02-16T11:57:00.703Z,24.27
2019-02-16T11:59:24.093Z,31.40
2019-02-16T12:01:27.809Z,20.53
2019-02-16T12:03:48.171Z,23.87
2019-02-16T12:05:54.617Z,23.80
2019-02-16T12:08:00.971Z,22.70
2019-02-16T12:10:20.590Z,24.30
2019-02-16T12:12:29.192Z,19.70
2019-02-16T12:14:32.210Z,28.47
2019-02-16T12:16:38.751Z,30.30
2019-02-16T12:18:48.212Z,30.63
2019-02-16T12:21:05.991Z,29.57
2019-02-16T12:23:08.908Z,27.83
2019-02-16T12:25:19.139Z,29.50
2019-02-16T12:27:40.840Z,24.83
2019-02-16T12:29:49.596Z,23.53
2019-02-16T12:32:08.137Z,30.87
2019-02-16T12:34:27.677Z,27.20
2019-02-16T12:36:32.565Z,26.87
2019-02-16T12:38:51.109Z,23.43
2019-02-16T12:40:54.958Z,27.37
2019-02-16T12:43:03.539Z,25.58
2019-02-16T12:45:09.832Z,28.90
2019-02-16T12:47:27.632Z,25.87
2019-02-16T12:49:35.456Z,25.93
2019-02-16T12:51:42.041Z,26.53
2019-02-16T12:53:50.803Z,26.53
2019-02-16T12:55:57.839Z,33.70
2019-02-16T12:58:06.752Z,28.27
2019-02-16T13:00:12.108Z,26.80
2019-02-16T13:02:19.128Z,32.00
2019-02-16T13:04:40.023Z,40.43
2019-02-16T13:07:01.244Z,25.77
2019-02-16T13:09:04.959Z,31.63
2019-02-16T13:11:14.023Z,28.90
2019-02-16T13:13:16.910Z,22.67
2019-02-16T13:15:32.315Z,21.90
2019-02-16T13:17:38.964Z,21.67
2019-02-16T13:19:55.487Z,21.10
2019-02-16T13:22:02.088Z,26.37
2019-02-16T13:24:07.456Z,35.03
2019-02-16T13:26:10.379Z,24.20
2019-02-16T13:28:31.952Z,24.50
2019-02-16T13:30:35.793Z,26.00
2019-02-16T13:32:44.892Z,24.03
2019-02-16T13:34:48.414Z,27.37
2019-02-16T13:37:02.015Z,26.80
2019-02-16T13:39:20.683Z,23.83
2019-02-16T13:41:41.091Z,25.43
2019-02-16T13:43:44.727Z,33.03
2019-02-16T13:45:47.652Z,23.20
2019-02-16T13:47:52.952Z,36.73
2019-02-16T13:49:59.372Z,25.20
2019-02-16T13:52:14.846Z,31.70
2019-02-16T13:54:21.618Z,31.20
2019-02-16T13:56:43.914Z,34.50
2019-02-16T13:58:50.251Z,25.80
2019-02-16T14:00:57.944Z,29.83
2019-02-16T14:03:02.630Z,28.23
2019-02-16T14:05:08.135Z,23.75
2019-02-16T14:07:11.812Z,24.27
2019-02-16T14:09:31.587Z,29.97
2019-02-16T14:11:36.653Z,24.77
2019-02-16T14:13:40.358Z,29.13
2019-02-16T14:15:44.753Z,25.63
2019-02-16T14:17:48.537Z,30.37
2019-02-16T14:19:51.490Z,24.10
2019-02-16T14:21:55.131Z,25.93
2019-02-16T14:23:58.016Z,27.27
2019-02-16T14:26:01.124Z,32.57
2019-02-16T14:28:05.461Z,25.67
2019-02-16T14:30:10.052Z,29.17
2019-02-16T14:32:13.357Z,30.50
2019-02-16T14:34:17.060Z,31.53
2019-02-16T14:36:20.720Z,23.70
2019-02-16T14:38:33.595Z,31.73
2019-02-16T14:40:37.872Z,34.07
2019-02-16T14:42:41.469Z,32.58
2019-02-16T14:44:45.173Z,28.03
2019-02-16T14:46:48.504Z,30.27
2019-02-16T14:48:51.752Z,30.47
2019-02-16T14:50:56.264Z,36.37
2019-02-16T14:52:59.776Z,35.73
2019-02-16T14:55:03.465Z,31.17
2019-02-16T14:57:07.987Z,32.43
2019-02-16T14:59:11.652Z,32.43
2019-02-16T15:01:14.551Z,30.07
2019-02-16T15:03:17.556Z,37.37
2019-02-16T15:05:21.244Z,26.67
2019-02-16T15:07:25.168Z,30.63
2019-02-16T15:09:28.852Z,31.80
2019-02-16T15:11:32.514Z,29.27
2019-02-16T15:13:35.436Z,28.53
2019-02-16T15:15:39.239Z,33.73
2019-02-16T15:17:42.899Z,37.20
2019-02-16T15:19:45.825Z,29.60
2019-02-16T15:21:49.620Z,27.20
2019-02-16T15:23:52.600Z,29.23
2019-02-16T15:26:00.997Z,24.63
2019-02-16T15:27:59.180Z,24.67
2019-02-16T15:30:02.063Z,29.83
2019-02-16T15:32:05.731Z,23.93
2019-02-16T15:34:08.654Z,23.17
2019-02-16T15:36:12.622Z,30.07
2019-02-16T15:38:15.512Z,28.43
2019-02-16T15:40:19.932Z,27.27
2019-02-16T15:42:23.719Z,30.30
2019-02-16T15:44:26.621Z,32.57
2019-02-16T15:46:29.538Z,31.13
2019-02-16T15:48:32.965Z,40.37
2019-02-16T15:50:35.865Z,36.07
2019-02-16T15:52:38.879Z,34.60
2019-02-16T15:54:42.539Z,40.47
2019-02-16T15:56:45.459Z,28.87
2019-02-16T15:58:49.178Z,31.75
2019-02-16T16:00:53.599Z,35.73
2019-02-16T16:02:56.459Z,25.43
2019-02-16T16:04:59.368Z,31.70
2019-02-16T16:07:02.273Z,33.50
2019-02-16T16:09:05.151Z,32.07
2019-02-16T16:11:08.478Z,29.73
2019-02-16T16:13:12.992Z,31.10
2019-02-16T16:15:22.293Z,33.43
2019-02-16T16:17:31.043Z,30.07
2019-02-16T16:19:34.384Z,39.70
2019-02-16T16:21:52.176Z,35.00
2019-02-16T16:24:14.193Z,31.80
2019-02-16T16:26:20.002Z,26.50
2019-02-16T16:28:24.519Z,30.60
2019-02-16T16:30:29.072Z,32.38
2019-02-16T16:32:42.750Z,32.60
2019-02-16T16:34:52.936Z,28.00
2019-02-16T16:36:58.729Z,34.47
2019-02-16T16:39:07.244Z,27.70
2019-02-16T16:41:29.821Z,29.63
2019-02-16T16:43:32.755Z,32.47
2019-02-16T16:45:50.644Z,30.27
2019-02-16T16:48:04.364Z,29.02
2019-02-16T16:50:19.517Z,23.40
2019-02-16T16:52:39.325Z,28.23
2019-02-16T16:54:42.235Z,34.77
2019-02-16T16:56:48.490Z,29.47
2019-02-16T16:58:53.030Z,33.20
2019-02-16T17:01:00.567Z,24.93
2019-02-16T17:03:09.240Z,32.53
2019-02-16T17:05:13.903Z,35.80
2019-02-16T17:07:17.504Z,35.90
2019-02-16T17:09:36.727Z,45.17
2019-02-16T17:11:58.124Z,50.17
2019-02-16T17:14:18.777Z,45.00
2019-02-16T17:16:36.472Z,35.73
2019-02-16T17:18:54.300Z,35.43
2019-02-16T17:21:01.651Z,36.70
2019-02-16T17:23:14.502Z,43.90
2019-02-16T17:25:21.193Z,49.70
2019-02-16T17:27:33.428Z,33.33
2019-02-16T17:29:36.764Z,39.10
2019-02-16T17:31:41.151Z,48.73
2019-02-16T17:34:04.667Z,35.97
2019-02-16T17:36:09.961Z,40.80
2019-02-16T17:38:23.597Z,36.10
2019-02-16T17:40:37.213Z,48.83
2019-02-16T17:42:55.852Z,51.10
2019-02-16T17:45:16.510Z,47.03
2019-02-16T17:47:37.741Z,36.90
2019-02-16T17:49:56.330Z,42.80
2019-02-16T17:52:18.567Z,40.43
2019-02-16T17:54:21.228Z,37.07
2019-02-16T17:56:46.566Z,41.23
2019-02-16T17:58:45.512Z,44.50
2019-02-16T18:01:03.291Z,47.30
2019-02-16T18:03:07.357Z,35.95
2019-02-16T18:05:13.166Z,55.67
2019-02-16T18:07:18.632Z,54.40
2019-02-16T18:09:21.629Z,36.23
2019-02-16T18:11:39.821Z,41.40
2019-02-16T18:13:44.355Z,45.50
2019-02-16T18:15:52.855Z,35.07
2019-02-16T18:17:56.515Z,38.50
2019-02-16T18:19:59.434Z,45.73
2019-02-16T18:22:07.614Z,36.90
2019-02-16T18:24:16.049Z,30.47
2019-02-16T18:26:24.924Z,27.90
2019-02-16T18:28:39.144Z,28.07
2019-02-16T18:30:42.052Z,29.50
2019-02-16T18:32:47.635Z,37.95
2019-02-16T18:35:08.026Z,37.43
2019-02-16T18:37:10.905Z,30.60
2019-02-16T18:39:29.436Z,24.10
2019-02-16T18:41:34.938Z,27.85
2019-02-16T18:43:37.848Z,36.28
2019-02-16T18:45:43.648Z,32.72
2019-02-16T18:47:53.192Z,34.60
2019-02-16T18:50:11.764Z,31.43
2019-02-16T18:52:21.400Z,27.17
2019-02-16T18:54:24.729Z,35.78
2019-02-16T18:56:29.182Z,40.40
2019-02-16T18:58:52.282Z,33.95
2019-02-16T19:01:10.078Z,45.15
2019-02-16T19:03:23.807Z,34.10
2019-02-16T19:05:33.781Z,40.80
2019-02-16T19:07:37.623Z,39.60
2019-02-16T19:09:44.204Z,31.47
2019-02-16T19:11:53.041Z,29.48
2019-02-16T19:13:57.378Z,34.10
2019-02-16T19:16:21.044Z,28.62
2019-02-16T19:18:29.485Z,23.23
2019-02-16T19:20:45.150Z,39.75
2019-02-16T19:22:53.832Z,30.33
2019-02-16T19:24:57.637Z,31.83
2019-02-16T19:27:16.126Z,25.53
2019-02-16T19:29:12.789Z,29.27
2019-02-16T19:31:18.474Z,27.33
2019-02-16T19:33:21.364Z,33.50
2019-02-16T19:35:24.255Z,36.90
2019-02-16T19:37:42.055Z,27.05
2019-02-16T19:39:51.589Z,35.38
2019-02-16T19:41:56.913Z,27.60
2019-02-16T19:43:59.844Z,35.67
2019-02-16T19:46:18.446Z,25.83
2019-02-16T19:48:24.987Z,24.87
2019-02-16T19:50:45.689Z,25.13
2019-02-16T19:52:54.288Z,30.80
2019-02-16T19:54:59.131Z,25.77
2019-02-16T19:57:03.864Z,28.77
2019-02-16T19:59:08.732Z,27.07
2019-02-16T20:01:17.296Z,31.60
2019-02-16T20:03:23.940Z,29.13
2019-02-16T20:05:42.655Z,18.80
2019-02-16T20:07:48.418Z,18.67
2019-02-16T20:10:10.100Z,27.52
2019-02-16T20:12:27.534Z,18.20
2019-02-16T20:14:42.909Z,20.77
2019-02-16T20:16:48.432Z,21.03
2019-02-16T20:18:56.149Z,22.00
2019-02-16T20:21:05.622Z,26.37
2019-02-16T20:23:23.388Z,26.50
2019-02-16T20:25:27.474Z,38.03
2019-02-16T20:27:37.392Z,28.52
2019-02-16T20:29:34.421Z,25.27
2019-02-16T20:31:37.743Z,19.65
2019-02-16T20:33:50.550Z,26.27
2019-02-16T20:36:12.153Z,25.80
2019-02-16T20:38:15.873Z,29.98
2019-02-16T20:40:20.250Z,37.03
2019-02-16T20:42:23.335Z,29.67
2019-02-16T20:44:30.764Z,46.47
2019-02-16T20:46:37.160Z,33.78
2019-02-16T20:48:41.301Z,31.62
2019-02-16T20:50:45.099Z,29.83
2019-02-16T20:53:06.012Z,31.90
2019-02-16T20:55:12.814Z,24.60
2019-02-16T20:57:31.255Z,23.42
2019-02-16T20:59:34.469Z,32.40
2019-02-16T21:01:38.166Z,27.40
2019-02-16T21:03:41.591Z,27.10
2019-02-16T21:05:46.237Z,27.57
2019-02-16T21:07:52.091Z,29.80
2019-02-16T21:09:59.764Z,26.92
2019-02-16T21:12:22.192Z,26.90
2019-02-16T21:14:36.581Z,31.63
2019-02-16T21:16:45.305Z,22.13
2019-02-16T21:19:03.079Z,23.87
2019-02-16T21:21:21.623Z,29.27
2019-02-16T21:23:41.022Z,27.93
2019-02-16T21:26:01.463Z,31.20
2019-02-16T21:28:06.938Z,28.40
2019-02-16T21:30:13.456Z,24.90
2019-02-16T21:32:17.955Z,24.90
2019-02-16T21:34:20.857Z,26.73
2019-02-16T21:36:27.590Z,33.70
2019-02-16T21:38:46.240Z,23.10
2019-02-16T21:40:53.536Z,24.33
2019-02-16T21:43:02.524Z,21.35
2019-02-16T21:45:10.573Z,26.73
2019-02-16T21:47:29.969Z,24.85
2019-02-16T21:49:32.950Z,28.10
2019-02-16T21:51:41.858Z,24.80
2019-02-16T21:53:45.360Z,20.33
2019-02-16T21:55:48.692Z,18.77
2019-02-16T21:58:08.348Z,25.52
2019-02-16T22:00:24.478Z,20.73
2019-02-16T22:02:43.735Z,23.80
2019-02-16T22:04:50.008Z,21.33
2019-02-16T22:06:58.636Z,17.35
2019-02-16T22:09:07.403Z,20.98
2019-02-16T22:11:16.107Z,28.85
2019-02-16T22:13:19.283Z,21.33
2019-02-16T22:15:22.838Z,23.10
2019-02-16T22:17:26.475Z,16.73
2019-02-16T22:19:30.097Z,22.73
2019-02-16T22:21:33.080Z,24.40
2019-02-16T22:23:35.960Z,19.23
2019-02-16T22:25:38.844Z,27.75
2019-02-16T22:27:41.768Z,25.33
2019-02-16T22:29:45.407Z,19.92
2019-02-16T22:31:48.332Z,30.62
2019-02-16T22:33:52.143Z,28.73
2019-02-16T22:35:55.101Z,23.95
2019-02-16T22:37:58.104Z,26.17
2019-02-16T22:40:01.888Z,26.33
2019-02-16T22:42:05.584Z,22.13
2019-02-16T22:44:09.240Z,22.15
2019-02-16T22:46:12.276Z,21.35
2019-02-16T22:48:16.676Z,20.60
2019-02-16T22:50:19.559Z,23.50
2019-02-16T22:52:22.560Z,31.90
2019-02-16T22:54:26.275Z,23.87
2019-02-16T22:56:29.951Z,23.12
2019-02-16T22:58:32.876Z,26.85
2019-02-16T23:00:35.759Z,26.00
2019-02-16T23:02:38.645Z,25.35
2019-02-16T23:04:41.558Z,26.05
2019-02-16T23:06:44.481Z,24.10
2019-02-16T23:08:48.960Z,21.40
2019-02-16T23:10:52.256Z,24.90
2019-02-16T23:12:55.243Z,21.98
2019-02-16T23:14:58.119Z,22.50
2019-02-16T23:17:01.417Z,22.73
2019-02-16T23:19:04.326Z,20.48
2019-02-16T23:21:07.978Z,24.70
2019-02-16T23:23:10.873Z,22.37
2019-02-16T23:25:13.760Z,14.00
2019-02-16T23:27:16.694Z,24.27
2019-02-16T23:29:19.618Z,21.92
2019-02-16T23:31:22.642Z,25.92
2019-02-16T23:33:26.457Z,23.60
2019-02-16T23:35:29.620Z,25.95
2019-02-16T23:37:33.271Z,27.45
2019-02-16T23:39:36.492Z,23.10
2019-02-16T23:41:40.184Z,23.98
2019-02-16T23:43:43.837Z,18.67
2019-02-16T23:45:46.777Z,18.55
2019-02-16T23:47:51.264Z,21.52
2019-02-16T23:49:54.156Z,22.62
2019-02-16T23:51:57.459Z,25.12
2019-02-16T23:54:01.633Z,32.10
2019-02-16T23:56:04.548Z,21.08
2019-02-16T23:58:08.244Z,20.88
